Aérodrome :
LOGIN :

S'inscrire | Disclaimer

   EN    FR    IT 

 










Légende :    VFR   VFR Marginal   IFR   IFR Intensif   IFR Très Intensif
Visi : 
Plafond : 
>= 8 km
>= 3000ft
5 à 8 km
1000 à 3000 ft
1500m à 5 km
500 à 1000 ft
800 à 1500m
200 à 500 ft
< 800m
< 200 ft
Symboles :   Orages  Brouillard  Fortes neiges  Fortes précipitations  Vent > 20 kt
SIGMETs :   Divers  Orages  Givrage  Turbulence  Onde Orograph.  Cendres Volcan.






- Altitude de l'aérodrome : 648 ft
- Code IATA : INI


LYNI - Nis Constantine

DERNIER METAR :
  • 192130Z VRB02KT CAVOK 03/01 Q1016 NOSIG

METARs EXPIRÉS :
  • 192100Z VRB02KT 9999 FEW050 03/M00 Q1017 NOSIG
  • 192030Z 12001KT 9999 FEW050 04/01 Q1017 NOSIG
  • 192000Z VRB01KT 9999 SCT050 06/01 Q1017 NOSIG
  • 191930Z 00000KT 9999 -RA SCT050 05/00 Q1017 NOSIG
  • 191900Z VRB01KT 9999 SCT050 05/01 Q1017 NOSIG

TAF TAF LYNI
Valide du 19 à 18h jusqu'au 20 à 18h UTC


191700Z 1918/2018 03006KT 9999 BKN040 TX07/2013Z TN02/2005Z
BECMG 2001/2003 3000 RA BR BKN010 BKN030
BECMG 2004/2006 33012KT
TEMPO 2007/2015 33020G32KT



MET'MAP, la Météo Aéronautique d'un coup d'oeil ! - Copyright ORBIFLY Décembre 2007 - Disclaimer

ORBIFLY MET'MAP TEAM :

Programmation & Développement : Alexandra Zaïnal
Sur une idée originale de : Baudouin d'Aumeries
Assistance à la programmation : Marc-Olivier Méhu
Soutien technique & logistique : Manuel Goepfert

Contact : metmap@orbifly.com




SOURCES & CREDITS :

   NOAA